createdAt,value
2019-02-17T00:02:50.424Z,23.10
2019-02-17T00:05:44.544Z,23.10
2019-02-17T00:08:38.700Z,23.10
2019-02-17T00:11:33.122Z,23.10
2019-02-17T00:14:27.828Z,23.10
2019-02-17T00:17:22.169Z,23.10
2019-02-17T00:20:16.447Z,23.10
2019-02-17T00:23:10.849Z,23.10
2019-02-17T00:26:04.957Z,23.00
2019-02-17T00:28:59.948Z,23.00
2019-02-17T00:31:54.505Z,23.10
2019-02-17T00:34:49.914Z,23.10
2019-02-17T00:37:44.311Z,23.10
2019-02-17T00:40:38.517Z,23.10
2019-02-17T00:43:32.539Z,23.10
2019-02-17T00:46:26.782Z,23.00
2019-02-17T00:49:21.180Z,23.00
2019-02-17T00:52:15.487Z,23.10
2019-02-17T00:55:09.876Z,23.10
2019-02-17T00:58:04.395Z,23.10
2019-02-17T01:00:58.646Z,23.00
2019-02-17T01:03:52.808Z,23.00
2019-02-17T01:06:47.059Z,23.00
2019-02-17T01:09:41.245Z,22.90
2019-02-17T01:12:35.391Z,22.90
2019-02-17T01:15:29.875Z,22.90
2019-02-17T01:18:24.083Z,23.00
2019-02-17T01:21:18.108Z,22.90
2019-02-17T01:24:12.541Z,22.90
2019-02-17T01:27:07.062Z,22.90
2019-02-17T01:30:01.614Z,22.90
2019-02-17T01:32:56.145Z,22.90
2019-02-17T01:35:50.751Z,22.90
2019-02-17T01:38:45.414Z,22.90
2019-02-17T01:41:39.838Z,22.90
2019-02-17T01:44:34.308Z,22.90
2019-02-17T01:47:28.472Z,22.90
2019-02-17T01:50:23.067Z,22.90
2019-02-17T01:53:17.619Z,22.90
2019-02-17T01:56:11.705Z,22.90
2019-02-17T01:59:06.064Z,22.90
2019-02-17T02:02:00.144Z,22.90
2019-02-17T02:04:54.498Z,22.90
2019-02-17T02:07:48.940Z,22.90
2019-02-17T02:10:41.389Z,22.90
2019-02-17T02:13:35.586Z,22.90
2019-02-17T02:16:29.663Z,22.90
2019-02-17T02:19:23.895Z,22.90
2019-02-17T02:22:18.481Z,22.90
2019-02-17T02:25:12.770Z,22.90
2019-02-17T02:28:07.217Z,22.90
2019-02-17T02:31:01.589Z,22.90
2019-02-17T02:33:55.706Z,22.90
2019-02-17T02:36:49.962Z,22.90
2019-02-17T02:39:45.146Z,22.90
2019-02-17T02:42:39.636Z,22.90
2019-02-17T02:45:34.120Z,22.90
2019-02-17T02:48:28.318Z,22.90
2019-02-17T02:51:22.682Z,22.90
2019-02-17T02:54:17.295Z,22.90
2019-02-17T02:57:11.892Z,22.90
2019-02-17T03:00:06.983Z,22.90
2019-02-17T03:03:01.464Z,22.90
2019-02-17T03:06:04.593Z,22.90
2019-02-17T03:08:59.281Z,22.90
2019-02-17T03:11:54.368Z,22.90
2019-02-17T03:14:48.611Z,22.90
2019-02-17T03:17:43.172Z,22.90
2019-02-17T03:20:37.926Z,22.90
2019-02-17T03:23:32.421Z,22.90
2019-02-17T03:26:26.618Z,22.90
2019-02-17T03:29:20.708Z,22.90
2019-02-17T03:32:15.475Z,22.90
2019-02-17T03:35:10.318Z,22.90
2019-02-17T03:38:04.677Z,22.90
2019-02-17T03:40:59.009Z,22.90
2019-02-17T03:43:53.373Z,22.90
2019-02-17T03:46:47.844Z,22.90
2019-02-17T03:49:42.563Z,22.90
2019-02-17T03:52:36.821Z,22.90
2019-02-17T03:55:31.583Z,22.90
2019-02-17T03:58:26.127Z,22.90
2019-02-17T04:01:21.481Z,22.90
2019-02-17T04:04:15.727Z,22.90
2019-02-17T04:07:10.217Z,22.90
2019-02-17T04:10:04.914Z,22.90
2019-02-17T04:12:59.296Z,23.00
2019-02-17T04:15:53.788Z,23.00
2019-02-17T04:18:48.466Z,23.00
2019-02-17T04:21:43.209Z,23.00
2019-02-17T04:24:37.781Z,23.00
2019-02-17T04:27:32.381Z,23.00
2019-02-17T04:30:29.550Z,23.00
2019-02-17T04:33:23.473Z,23.00
2019-02-17T04:36:17.582Z,23.00
2019-02-17T04:39:11.938Z,23.00
2019-02-17T04:42:06.676Z,23.00
2019-02-17T04:45:01.151Z,23.00
2019-02-17T04:47:53.458Z,23.00
2019-02-17T04:50:47.805Z,23.10
2019-02-17T04:53:42.114Z,23.00
2019-02-17T04:56:36.471Z,23.00
2019-02-17T04:59:30.574Z,23.10
2019-02-17T05:02:24.773Z,23.10
2019-02-17T05:05:19.403Z,23.00
2019-02-17T05:08:13.779Z,23.10
2019-02-17T05:11:08.158Z,23.10
2019-02-17T05:14:02.392Z,23.00
2019-02-17T05:16:55.685Z,23.00
2019-02-17T05:19:50.368Z,23.00
2019-02-17T05:22:45.288Z,23.00
2019-02-17T05:25:39.464Z,23.00
2019-02-17T05:28:34.450Z,23.10
2019-02-17T05:31:28.887Z,23.10
2019-02-17T05:34:24.469Z,23.10
2019-02-17T05:37:20.261Z,23.10
2019-02-17T05:40:15.055Z,23.10
2019-02-17T05:43:09.213Z,23.00
2019-02-17T05:46:03.733Z,23.10
2019-02-17T05:48:57.997Z,23.10
2019-02-17T05:51:52.140Z,23.10
2019-02-17T05:54:46.378Z,23.10
2019-02-17T05:57:40.589Z,23.00
2019-02-17T06:00:36.431Z,23.10
2019-02-17T06:03:30.755Z,23.10
2019-02-17T06:06:24.869Z,23.10
2019-02-17T06:09:19.103Z,23.10
2019-02-17T06:12:14.144Z,23.10
2019-02-17T06:15:08.663Z,23.00
2019-02-17T06:18:07.331Z,23.10
2019-02-17T06:21:04.092Z,23.10
2019-02-17T06:23:58.680Z,23.10
2019-02-17T06:26:53.346Z,23.10
2019-02-17T06:29:49.093Z,23.10
2019-02-17T06:32:43.780Z,23.10
2019-02-17T06:35:38.234Z,23.10
2019-02-17T06:38:33.063Z,23.10
2019-02-17T06:41:27.386Z,23.10
2019-02-17T06:44:21.951Z,23.10
2019-02-17T06:47:24.216Z,23.10
2019-02-17T06:50:19.828Z,23.10
2019-02-17T06:53:14.386Z,23.10
2019-02-17T06:56:17.342Z,23.10
2019-02-17T06:59:12.097Z,23.10
2019-02-17T07:02:07.662Z,23.10
2019-02-17T07:05:14.549Z,23.10
2019-02-17T07:08:10.247Z,23.10
2019-02-17T07:11:04.745Z,23.10
2019-02-17T07:13:59.075Z,23.10
2019-02-17T07:16:54.870Z,23.10
2019-02-17T07:19:49.289Z,23.10
2019-02-17T07:22:44.112Z,23.10
2019-02-17T07:25:38.547Z,23.10
2019-02-17T07:28:33.328Z,23.10
2019-02-17T07:31:34.606Z,23.10
2019-02-17T07:34:25.047Z,23.10
2019-02-17T07:37:20.859Z,23.10
2019-02-17T07:40:15.555Z,23.10
2019-02-17T07:45:57.765Z,23.10
2019-02-17T07:48:52.313Z,23.10
2019-02-17T07:51:46.833Z,23.10
2019-02-17T07:54:41.610Z,23.20
2019-02-17T07:57:36.126Z,23.20
2019-02-17T08:00:30.681Z,23.20
2019-02-17T08:03:25.516Z,23.20
2019-02-17T08:06:21.919Z,23.20
2019-02-17T08:09:16.619Z,23.10
2019-02-17T08:12:11.003Z,23.20
2019-02-17T08:17:55.368Z,23.20
2019-02-17T08:20:49.707Z,23.20
2019-02-17T08:23:44.308Z,23.20
2019-02-17T08:26:39.970Z,23.20
2019-02-17T08:29:34.225Z,23.20
2019-02-17T08:32:28.794Z,23.20
2019-02-17T08:35:23.273Z,23.20
2019-02-17T08:38:17.834Z,23.20
2019-02-17T08:41:12.030Z,23.20
2019-02-17T08:44:06.204Z,23.20
2019-02-17T08:46:58.700Z,23.20
2019-02-17T08:52:43.349Z,23.20
2019-02-17T08:58:28.350Z,23.20
2019-02-17T09:01:22.566Z,23.20
2019-02-17T09:04:10.915Z,23.20
2019-02-17T09:07:06.422Z,23.20
2019-02-17T09:10:00.712Z,23.20
2019-02-17T09:12:55.026Z,23.30
2019-02-17T09:15:49.576Z,23.30
2019-02-17T09:18:43.595Z,23.20
2019-02-17T09:21:38.142Z,23.30
2019-02-17T09:24:32.502Z,23.20
2019-02-17T09:27:26.978Z,23.30
2019-02-17T09:30:21.523Z,23.20
2019-02-17T09:33:16.085Z,23.30
2019-02-17T09:36:10.497Z,23.30
2019-02-17T09:39:05.939Z,23.30
2019-02-17T09:42:00.518Z,23.30
2019-02-17T09:44:54.962Z,23.30
2019-02-17T09:47:49.805Z,23.30
2019-02-17T09:50:44.051Z,23.30
2019-02-17T09:53:38.244Z,23.30
2019-02-17T09:56:32.848Z,23.30
2019-02-17T09:59:27.005Z,23.30
2019-02-17T10:02:26.641Z,23.20
2019-02-17T10:05:17.092Z,23.20
2019-02-17T10:08:11.275Z,23.20
2019-02-17T10:11:05.772Z,23.20
2019-02-17T10:14:00.099Z,23.20
2019-02-17T10:16:54.527Z,23.20
2019-02-17T10:19:48.968Z,23.20
2019-02-17T10:22:43.416Z,23.20
2019-02-17T10:25:37.971Z,23.20
2019-02-17T10:28:41.832Z,23.20
2019-02-17T10:31:28.284Z,23.20
2019-02-17T10:34:22.717Z,23.20
2019-02-17T10:37:17.159Z,23.20
2019-02-17T10:40:13.414Z,23.20
2019-02-17T10:43:07.727Z,23.20
2019-02-17T10:46:02.592Z,23.20
2019-02-17T10:48:57.401Z,23.20
2019-02-17T10:51:52.039Z,23.20
2019-02-17T10:54:45.365Z,23.20
2019-02-17T10:57:39.792Z,23.20
2019-02-17T11:00:34.532Z,23.20
2019-02-17T11:03:29.292Z,23.20
2019-02-17T11:06:23.694Z,23.20
2019-02-17T11:09:25.671Z,23.20
2019-02-17T11:12:19.918Z,23.20
2019-02-17T11:15:16.828Z,23.20
2019-02-17T11:18:11.851Z,23.20
2019-02-17T11:21:06.041Z,23.20
2019-02-17T11:24:00.744Z,23.20
2019-02-17T11:26:55.234Z,23.20
2019-02-17T11:29:50.004Z,23.20
2019-02-17T11:32:44.547Z,23.20
2019-02-17T11:35:39.292Z,23.20
2019-02-17T11:38:33.750Z,23.20
2019-02-17T11:41:28.046Z,23.20
2019-02-17T11:44:16.699Z,23.20
2019-02-17T11:47:11.586Z,23.20
2019-02-17T11:50:06.964Z,23.20
2019-02-17T11:53:01.450Z,23.20
2019-02-17T11:55:57.410Z,23.20
2019-02-17T11:58:52.008Z,23.20
2019-02-17T12:01:46.619Z,23.20
2019-02-17T12:04:41.138Z,23.20
2019-02-17T12:07:35.509Z,23.30
2019-02-17T12:10:30.086Z,23.20
2019-02-17T12:13:25.144Z,23.20
2019-02-17T12:16:19.967Z,23.30
2019-02-17T12:19:14.698Z,23.30
2019-02-17T12:22:25.972Z,23.30
2019-02-17T12:25:29.358Z,23.30
2019-02-17T12:28:39.306Z,23.30
2019-02-17T12:31:37.552Z,23.30
2019-02-17T12:34:32.116Z,23.30
2019-02-17T12:37:25.553Z,23.30
2019-02-17T12:40:19.802Z,23.30
2019-02-17T12:43:14.419Z,23.30
2019-02-17T12:46:08.770Z,23.30
2019-02-17T12:49:03.298Z,23.40
2019-02-17T12:51:59.275Z,23.40
2019-02-17T12:54:54.728Z,23.40
2019-02-17T12:57:49.675Z,23.40
2019-02-17T13:00:44.504Z,23.40
2019-02-17T13:03:39.129Z,23.40
2019-02-17T13:06:33.857Z,23.40
2019-02-17T13:09:28.553Z,23.40
2019-02-17T13:12:23.215Z,23.40
2019-02-17T13:15:17.925Z,23.40
2019-02-17T13:18:12.495Z,23.50
2019-02-17T13:21:08.066Z,23.40
2019-02-17T13:24:02.730Z,23.50
2019-02-17T13:26:57.365Z,23.50
2019-02-17T13:29:51.562Z,23.50
2019-02-17T13:32:45.799Z,23.50
2019-02-17T13:35:40.094Z,23.50
2019-02-17T13:38:34.236Z,23.50
2019-02-17T13:41:28.874Z,23.40
2019-02-17T13:44:23.223Z,23.50
2019-02-17T13:47:17.522Z,23.50
2019-02-17T13:50:13.422Z,23.40
2019-02-17T13:53:11.875Z,23.40
2019-02-17T13:56:03.454Z,23.50
2019-02-17T13:58:58.273Z,23.50
2019-02-17T14:01:52.990Z,23.50
2019-02-17T14:04:47.406Z,23.50
2019-02-17T14:07:41.981Z,23.50
2019-02-17T14:10:36.467Z,23.50
2019-02-17T14:13:30.963Z,23.50
2019-02-17T14:16:25.176Z,23.50
2019-02-17T14:19:19.607Z,23.50
2019-02-17T14:22:13.906Z,23.50
2019-02-17T14:25:10.969Z,23.50
2019-02-17T14:28:05.807Z,23.50
2019-02-17T14:31:00.294Z,23.50
2019-02-17T14:33:58.493Z,23.50
2019-02-17T14:36:50.223Z,23.50
2019-02-17T14:39:44.637Z,23.50
2019-02-17T14:42:39.317Z,23.50
2019-02-17T14:45:34.128Z,23.50
2019-02-17T14:48:28.792Z,23.50
2019-02-17T14:51:22.229Z,23.50
2019-02-17T14:54:18.529Z,23.50
2019-02-17T14:57:13.203Z,23.50
2019-02-17T15:00:08.176Z,23.50
2019-02-17T15:03:03.084Z,23.50
2019-02-17T15:05:57.669Z,23.50
2019-02-17T15:08:52.232Z,23.50
2019-02-17T15:11:47.326Z,23.40
2019-02-17T15:14:41.775Z,23.50
2019-02-17T15:17:36.267Z,23.40
2019-02-17T15:20:32.203Z,23.40
2019-02-17T15:23:26.568Z,23.50
2019-02-17T15:26:21.650Z,23.50
2019-02-17T15:29:16.748Z,23.40
2019-02-17T15:32:11.407Z,23.50
2019-02-17T15:35:05.943Z,23.50
2019-02-17T15:38:00.350Z,23.50
2019-02-17T15:40:54.702Z,23.50
2019-02-17T15:43:50.969Z,23.50
2019-02-17T15:46:45.516Z,23.60
2019-02-17T15:49:40.077Z,23.60
2019-02-17T15:52:35.518Z,23.60
2019-02-17T15:55:29.965Z,23.50
2019-02-17T15:58:24.234Z,23.60
2019-02-17T16:01:18.836Z,23.60
2019-02-17T16:04:13.168Z,23.50
2019-02-17T16:07:07.621Z,23.50
2019-02-17T16:10:03.779Z,23.50
2019-02-17T16:12:57.913Z,23.50
2019-02-17T16:15:52.645Z,23.50
2019-02-17T16:18:47.389Z,23.50
2019-02-17T16:21:42.530Z,23.50
2019-02-17T16:24:36.755Z,23.50
2019-02-17T16:27:31.022Z,23.40
2019-02-17T16:30:25.499Z,23.40
2019-02-17T16:33:20.544Z,23.40
2019-02-17T16:36:15.355Z,23.40
2019-02-17T16:39:14.923Z,23.40
2019-02-17T16:42:09.625Z,23.50
2019-02-17T16:45:04.014Z,23.50
2019-02-17T16:47:58.544Z,23.40
2019-02-17T16:50:53.277Z,23.40
2019-02-17T16:53:47.980Z,23.40
2019-02-17T16:56:42.277Z,23.40
2019-02-17T16:59:37.351Z,23.40
2019-02-17T17:02:32.071Z,23.40
2019-02-17T17:05:26.885Z,23.40
2019-02-17T17:08:22.597Z,23.40
2019-02-17T17:11:16.918Z,23.40
2019-02-17T17:14:11.257Z,23.40
2019-02-17T17:17:05.805Z,23.40
2019-02-17T17:20:00.273Z,23.40
2019-02-17T17:22:54.784Z,23.40
2019-02-17T17:25:48.950Z,23.40
2019-02-17T17:28:43.486Z,23.40
2019-02-17T17:31:38.022Z,23.40
2019-02-17T17:34:34.172Z,23.40
2019-02-17T17:37:28.474Z,23.40
2019-02-17T17:40:22.688Z,23.40
2019-02-17T17:43:16.933Z,23.40
2019-02-17T17:46:12.432Z,23.40
2019-02-17T17:49:07.322Z,23.40
2019-02-17T17:52:01.582Z,23.40
2019-02-17T17:54:56.123Z,23.40
2019-02-17T17:57:50.712Z,23.30
2019-02-17T18:00:45.415Z,23.30
2019-02-17T18:03:39.778Z,23.30
2019-02-17T18:06:34.075Z,23.30
2019-02-17T18:09:28.611Z,23.30
2019-02-17T18:12:22.833Z,23.30
2019-02-17T18:15:17.331Z,23.30
2019-02-17T18:18:11.709Z,23.20
2019-02-17T18:21:06.301Z,23.20
2019-02-17T18:24:00.831Z,23.20
2019-02-17T18:26:57.101Z,23.20
2019-02-17T18:29:51.680Z,23.20
2019-02-17T18:32:45.977Z,23.20
2019-02-17T18:35:40.825Z,23.20
2019-02-17T18:38:35.339Z,23.20
2019-02-17T18:41:30.639Z,23.20
2019-02-17T18:44:25.347Z,23.20
2019-02-17T18:47:19.968Z,23.20
2019-02-17T18:50:16.048Z,23.20
2019-02-17T18:53:11.794Z,23.20
2019-02-17T18:56:06.178Z,23.20
2019-02-17T18:59:00.303Z,23.30
2019-02-17T19:01:55.284Z,23.30
2019-02-17T19:04:49.718Z,23.30
2019-02-17T19:07:44.125Z,23.30
2019-02-17T19:10:38.426Z,23.30
2019-02-17T19:13:33.273Z,23.30
2019-02-17T19:16:27.548Z,23.30
2019-02-17T19:19:22.328Z,23.30
2019-02-17T19:22:16.699Z,23.30
2019-02-17T19:25:11.778Z,23.20
2019-02-17T19:28:06.196Z,23.30
2019-02-17T19:31:01.233Z,23.20
2019-02-17T19:33:56.237Z,23.20
2019-02-17T19:36:52.632Z,23.30
2019-02-17T19:39:47.219Z,23.20
2019-02-17T19:42:42.463Z,23.30
2019-02-17T19:45:35.874Z,23.20
2019-02-17T19:48:30.338Z,23.30
2019-02-17T19:51:24.585Z,23.20
2019-02-17T19:54:20.022Z,23.20
2019-02-17T19:57:14.462Z,23.20
2019-02-17T20:00:10.715Z,23.20
2019-02-17T20:03:22.193Z,23.20
2019-02-17T20:06:19.215Z,23.20
2019-02-17T20:09:21.781Z,23.20
2019-02-17T20:12:16.407Z,23.20
2019-02-17T20:15:10.786Z,23.20
2019-02-17T20:18:04.972Z,23.20
2019-02-17T20:20:59.454Z,23.20
2019-02-17T20:23:53.994Z,23.20
2019-02-17T20:26:48.181Z,23.10
2019-02-17T20:29:42.501Z,23.10
2019-02-17T20:32:37.120Z,23.10
2019-02-17T20:35:31.285Z,23.10
2019-02-17T20:38:25.582Z,23.10
2019-02-17T20:41:20.009Z,23.10
2019-02-17T20:44:14.017Z,23.10
2019-02-17T20:47:08.490Z,23.00
2019-02-17T20:50:02.833Z,23.00
2019-02-17T20:52:57.684Z,23.00
2019-02-17T20:55:51.665Z,23.00
2019-02-17T20:58:45.904Z,23.00
2019-02-17T21:01:40.271Z,23.00
2019-02-17T21:04:34.840Z,23.00
2019-02-17T21:07:29.455Z,23.00
2019-02-17T21:10:24.009Z,23.00
2019-02-17T21:13:18.569Z,23.00
2019-02-17T21:16:13.337Z,23.00
2019-02-17T21:19:07.804Z,23.00
2019-02-17T21:22:02.070Z,22.90
2019-02-17T21:24:56.398Z,22.90
2019-02-17T21:27:50.804Z,22.90
2019-02-17T21:30:45.822Z,22.90
2019-02-17T21:33:40.325Z,22.90
2019-02-17T21:36:34.472Z,22.90
2019-02-17T21:39:28.679Z,22.90
2019-02-17T21:42:23.065Z,22.80
2019-02-17T21:45:17.618Z,22.90
2019-02-17T21:48:11.868Z,22.80
2019-02-17T21:51:06.086Z,22.90
2019-02-17T21:54:00.498Z,22.90
2019-02-17T21:56:54.942Z,22.80
2019-02-17T21:59:49.870Z,22.80
2019-02-17T22:02:44.347Z,22.90
2019-02-17T22:05:38.774Z,22.80
2019-02-17T22:08:33.050Z,22.80
2019-02-17T22:11:27.675Z,22.80
2019-02-17T22:14:21.945Z,22.70
2019-02-17T22:17:16.606Z,22.80
2019-02-17T22:20:11.537Z,22.70
2019-02-17T22:23:05.999Z,22.70
2019-02-17T22:26:00.255Z,22.70
2019-02-17T22:28:54.668Z,22.70
2019-02-17T22:31:49.240Z,22.70
2019-02-17T22:34:43.981Z,22.70
2019-02-17T22:37:38.377Z,22.70
2019-02-17T22:40:32.977Z,22.70
2019-02-17T22:43:28.069Z,22.70
2019-02-17T22:46:22.347Z,22.70
2019-02-17T22:49:16.873Z,22.70
2019-02-17T22:52:11.891Z,22.70
2019-02-17T22:55:06.320Z,22.80
2019-02-17T22:58:01.039Z,22.70
2019-02-17T23:01:03.186Z,22.70
2019-02-17T23:03:58.948Z,22.70
2019-02-17T23:06:54.357Z,22.70
2019-02-17T23:09:48.787Z,22.60
2019-02-17T23:12:43.504Z,22.60
2019-02-17T23:15:37.898Z,22.60
2019-02-17T23:18:32.981Z,22.60
2019-02-17T23:21:27.536Z,22.60
2019-02-17T23:24:22.343Z,22.60
2019-02-17T23:27:16.280Z,22.60
2019-02-17T23:30:10.868Z,22.60
2019-02-17T23:33:05.116Z,22.50
2019-02-17T23:35:59.588Z,22.50
2019-02-17T23:38:54.121Z,22.50
2019-02-17T23:41:48.635Z,22.50
2019-02-17T23:44:43.099Z,22.50
2019-02-17T23:47:37.854Z,22.50
2019-02-17T23:50:32.405Z,22.50
2019-02-17T23:53:26.858Z,22.50
2019-02-17T23:56:21.381Z,22.50
2019-02-17T23:59:15.892Z,22.40
